sensor_id;sensor_type;location;lat;lon;timestamp;P1;durP1;ratioP1;P2;durP2;ratioP2
75696;SDS011;64312;44.738;20.612;2022-12-08T00:00:26;33.53;;;17.13;;
75696;SDS011;64312;44.738;20.612;2022-12-08T00:02:52;33.63;;;16.88;;
75696;SDS011;64312;44.738;20.612;2022-12-08T00:05:17;32.95;;;16.27;;
75696;SDS011;64312;44.738;20.612;2022-12-08T00:08:02;33.15;;;17.55;;
75696;SDS011;64312;44.738;20.612;2022-12-08T00:10:46;38.25;;;18.05;;
75696;SDS011;64312;44.738;20.612;2022-12-08T00:13:12;38.08;;;19.02;;
75696;SDS011;64312;44.738;20.612;2022-12-08T00:15:37;36.95;;;18.25;;
75696;SDS011;64312;44.738;20.612;2022-12-08T00:18:03;41.28;;;20.50;;
75696;SDS011;64312;44.738;20.612;2022-12-08T00:20:29;41.50;;;20.17;;
75696;SDS011;64312;44.738;20.612;2022-12-08T00:22:54;46.13;;;21.60;;
75696;SDS011;64312;44.738;20.612;2022-12-08T00:25:21;45.30;;;21.45;;
75696;SDS011;64312;44.738;20.612;2022-12-08T00:27:46;39.38;;;18.13;;
75696;SDS011;64312;44.738;20.612;2022-12-08T00:30:12;34.75;;;16.58;;
75696;SDS011;64312;44.738;20.612;2022-12-08T00:32:38;32.08;;;16.77;;
75696;SDS011;64312;44.738;20.612;2022-12-08T00:35:03;39.17;;;16.38;;
75696;SDS011;64312;44.738;20.612;2022-12-08T00:37:29;30.85;;;16.25;;
75696;SDS011;64312;44.738;20.612;2022-12-08T00:39:55;31.75;;;13.82;;
75696;SDS011;64312;44.738;20.612;2022-12-08T00:42:20;32.60;;;15.70;;
75696;SDS011;64312;44.738;20.612;2022-12-08T00:44:46;32.35;;;16.40;;
75696;SDS011;64312;44.738;20.612;2022-12-08T00:47:12;33.08;;;16.58;;
75696;SDS011;64312;44.738;20.612;2022-12-08T00:49:39;32.75;;;16.80;;
75696;SDS011;64312;44.738;20.612;2022-12-08T00:52:05;30.55;;;14.50;;
75696;SDS011;64312;44.738;20.612;2022-12-08T00:54:31;30.73;;;15.40;;
75696;SDS011;64312;44.738;20.612;2022-12-08T00:56:57;35.72;;;16.75;;
75696;SDS011;64312;44.738;20.612;2022-12-08T00:59:23;43.35;;;19.20;;
75696;SDS011;64312;44.738;20.612;2022-12-08T01:01:48;40.50;;;20.23;;
75696;SDS011;64312;44.738;20.612;2022-12-08T01:04:15;40.40;;;18.27;;
75696;SDS011;64312;44.738;20.612;2022-12-08T01:06:42;34.00;;;17.38;;
75696;SDS011;64312;44.738;20.612;2022-12-08T01:09:09;33.90;;;16.27;;
75696;SDS011;64312;44.738;20.612;2022-12-08T01:11:36;31.48;;;16.30;;
75696;SDS011;64312;44.738;20.612;2022-12-08T01:14:03;30.00;;;15.65;;
75696;SDS011;64312;44.738;20.612;2022-12-08T01:16:29;28.08;;;14.77;;
75696;SDS011;64312;44.738;20.612;2022-12-08T01:18:57;31.95;;;15.40;;
75696;SDS011;64312;44.738;20.612;2022-12-08T01:21:24;27.15;;;13.52;;
75696;SDS011;64312;44.738;20.612;2022-12-08T01:23:50;26.60;;;14.30;;
75696;SDS011;64312;44.738;20.612;2022-12-08T01:26:16;30.25;;;13.93;;
75696;SDS011;64312;44.738;20.612;2022-12-08T01:28:43;27.83;;;14.25;;
75696;SDS011;64312;44.738;20.612;2022-12-08T01:31:11;30.13;;;14.85;;
75696;SDS011;64312;44.738;20.612;2022-12-08T01:33:39;28.90;;;15.68;;
75696;SDS011;64312;44.738;20.612;2022-12-08T01:36:05;28.23;;;14.13;;
75696;SDS011;64312;44.738;20.612;2022-12-08T01:38:31;27.77;;;15.90;;
75696;SDS011;64312;44.738;20.612;2022-12-08T01:40:57;26.42;;;13.52;;
75696;SDS011;64312;44.738;20.612;2022-12-08T01:43:23;28.15;;;14.90;;
75696;SDS011;64312;44.738;20.612;2022-12-08T01:45:48;23.98;;;13.80;;
75696;SDS011;64312;44.738;20.612;2022-12-08T01:48:15;26.35;;;13.07;;
75696;SDS011;64312;44.738;20.612;2022-12-08T01:50:44;22.67;;;13.20;;
75696;SDS011;64312;44.738;20.612;2022-12-08T01:53:30;27.20;;;13.13;;
75696;SDS011;64312;44.738;20.612;2022-12-08T01:55:58;24.90;;;12.07;;
75696;SDS011;64312;44.738;20.612;2022-12-08T01:58:30;26.38;;;12.45;;
75696;SDS011;64312;44.738;20.612;2022-12-08T02:01:02;29.70;;;14.13;;
75696;SDS011;64312;44.738;20.612;2022-12-08T02:03:28;30.65;;;13.60;;
75696;SDS011;64312;44.738;20.612;2022-12-08T02:06:02;23.67;;;13.45;;
75696;SDS011;64312;44.738;20.612;2022-12-08T02:08:28;25.90;;;14.00;;
75696;SDS011;64312;44.738;20.612;2022-12-08T02:10:56;26.52;;;13.70;;
75696;SDS011;64312;44.738;20.612;2022-12-08T02:13:21;27.98;;;14.98;;
75696;SDS011;64312;44.738;20.612;2022-12-08T02:39:36;24.48;;;12.40;;
75696;SDS011;64312;44.738;20.612;2022-12-08T02:42:44;22.98;;;13.18;;
75696;SDS011;64312;44.738;20.612;2022-12-08T02:45:28;19.65;;;10.40;;
75696;SDS011;64312;44.738;20.612;2022-12-08T02:47:58;20.88;;;11.07;;
75696;SDS011;64312;44.738;20.612;2022-12-08T02:50:24;19.63;;;10.95;;
75696;SDS011;64312;44.738;20.612;2022-12-08T02:52:51;18.15;;;9.95;;
75696;SDS011;64312;44.738;20.612;2022-12-08T03:01:06;23.98;;;12.70;;
75696;SDS011;64312;44.738;20.612;2022-12-08T03:06:51;26.85;;;12.82;;
75696;SDS011;64312;44.738;20.612;2022-12-08T03:09:35;25.45;;;13.10;;
75696;SDS011;64312;44.738;20.612;2022-12-08T03:12:05;25.17;;;12.15;;
75696;SDS011;64312;44.738;20.612;2022-12-08T03:14:35;27.90;;;14.00;;
75696;SDS011;64312;44.738;20.612;2022-12-08T03:17:04;25.02;;;12.43;;
75696;SDS011;64312;44.738;20.612;2022-12-08T03:19:34;22.05;;;11.82;;
75696;SDS011;64312;44.738;20.612;2022-12-08T03:22:04;27.10;;;14.32;;
75696;SDS011;64312;44.738;20.612;2022-12-08T03:24:35;26.88;;;13.40;;
75696;SDS011;64312;44.738;20.612;2022-12-08T03:30:01;24.27;;;12.20;;
75696;SDS011;64312;44.738;20.612;2022-12-08T03:35:05;22.92;;;12.18;;
75696;SDS011;64312;44.738;20.612;2022-12-08T03:37:35;22.52;;;11.90;;
75696;SDS011;64312;44.738;20.612;2022-12-08T03:40:04;24.85;;;11.85;;
75696;SDS011;64312;44.738;20.612;2022-12-08T03:42:32;21.15;;;12.25;;
75696;SDS011;64312;44.738;20.612;2022-12-08T03:44:57;24.85;;;12.43;;
75696;SDS011;64312;44.738;20.612;2022-12-08T03:47:23;20.73;;;10.60;;
75696;SDS011;64312;44.738;20.612;2022-12-08T03:49:48;21.20;;;11.45;;
75696;SDS011;64312;44.738;20.612;2022-12-08T03:52:14;22.13;;;10.98;;
75696;SDS011;64312;44.738;20.612;2022-12-08T03:54:40;25.00;;;12.07;;
75696;SDS011;64312;44.738;20.612;2022-12-08T03:57:05;26.92;;;14.32;;
75696;SDS011;64312;44.738;20.612;2022-12-08T03:59:31;22.73;;;12.48;;
75696;SDS011;64312;44.738;20.612;2022-12-08T04:01:57;23.27;;;12.02;;
75696;SDS011;64312;44.738;20.612;2022-12-08T04:04:22;24.48;;;12.88;;
75696;SDS011;64312;44.738;20.612;2022-12-08T04:06:48;26.02;;;12.38;;
75696;SDS011;64312;44.738;20.612;2022-12-08T04:09:14;22.95;;;11.35;;
75696;SDS011;64312;44.738;20.612;2022-12-08T04:11:40;26.77;;;13.75;;
75696;SDS011;64312;44.738;20.612;2022-12-08T04:14:06;26.25;;;12.52;;
75696;SDS011;64312;44.738;20.612;2022-12-08T04:16:32;24.73;;;11.95;;
75696;SDS011;64312;44.738;20.612;2022-12-08T04:18:57;20.88;;;12.23;;
75696;SDS011;64312;44.738;20.612;2022-12-08T04:21:23;25.20;;;12.10;;
75696;SDS011;64312;44.738;20.612;2022-12-08T04:23:48;19.45;;;11.73;;
75696;SDS011;64312;44.738;20.612;2022-12-08T04:26:14;20.88;;;11.57;;
75696;SDS011;64312;44.738;20.612;2022-12-08T04:28:40;21.38;;;11.35;;
75696;SDS011;64312;44.738;20.612;2022-12-08T04:31:05;18.27;;;10.63;;
75696;SDS011;64312;44.738;20.612;2022-12-08T04:33:32;23.83;;;11.73;;
75696;SDS011;64312;44.738;20.612;2022-12-08T04:35:59;21.73;;;11.15;;
75696;SDS011;64312;44.738;20.612;2022-12-08T04:38:25;20.13;;;11.15;;
75696;SDS011;64312;44.738;20.612;2022-12-08T04:40:51;20.90;;;11.48;;
75696;SDS011;64312;44.738;20.612;2022-12-08T04:43:17;17.77;;;10.40;;
75696;SDS011;64312;44.738;20.612;2022-12-08T04:45:43;23.00;;;12.50;;
75696;SDS011;64312;44.738;20.612;2022-12-08T04:48:09;22.10;;;11.88;;
75696;SDS011;64312;44.738;20.612;2022-12-08T04:50:38;24.60;;;12.98;;
75696;SDS011;64312;44.738;20.612;2022-12-08T04:53:06;22.50;;;12.60;;
75696;SDS011;64312;44.738;20.612;2022-12-08T04:55:32;25.75;;;12.90;;
75696;SDS011;64312;44.738;20.612;2022-12-08T04:57:58;22.80;;;12.82;;
75696;SDS011;64312;44.738;20.612;2022-12-08T05:00:24;19.05;;;10.95;;
75696;SDS011;64312;44.738;20.612;2022-12-08T05:02:49;20.35;;;10.40;;
75696;SDS011;64312;44.738;20.612;2022-12-08T05:05:15;22.15;;;12.57;;
75696;SDS011;64312;44.738;20.612;2022-12-08T05:07:41;24.55;;;13.20;;
75696;SDS011;64312;44.738;20.612;2022-12-08T05:10:06;21.65;;;12.05;;
75696;SDS011;64312;44.738;20.612;2022-12-08T05:12:33;19.48;;;11.20;;
75696;SDS011;64312;44.738;20.612;2022-12-08T05:15:00;18.17;;;10.95;;
75696;SDS011;64312;44.738;20.612;2022-12-08T05:17:25;14.82;;;8.80;;
75696;SDS011;64312;44.738;20.612;2022-12-08T05:19:51;15.55;;;8.10;;
75696;SDS011;64312;44.738;20.612;2022-12-08T05:22:16;18.05;;;8.02;;
75696;SDS011;64312;44.738;20.612;2022-12-08T05:24:42;13.98;;;7.95;;
75696;SDS011;64312;44.738;20.612;2022-12-08T05:27:08;14.38;;;8.50;;
75696;SDS011;64312;44.738;20.612;2022-12-08T05:29:34;14.98;;;10.00;;
75696;SDS011;64312;44.738;20.612;2022-12-08T05:31:59;20.90;;;11.40;;
75696;SDS011;64312;44.738;20.612;2022-12-08T05:34:26;18.13;;;10.38;;
75696;SDS011;64312;44.738;20.612;2022-12-08T05:36:51;19.17;;;10.73;;
75696;SDS011;64312;44.738;20.612;2022-12-08T05:39:17;16.10;;;10.13;;
75696;SDS011;64312;44.738;20.612;2022-12-08T05:41:43;17.90;;;10.50;;
75696;SDS011;64312;44.738;20.612;2022-12-08T05:44:08;17.50;;;9.65;;
75696;SDS011;64312;44.738;20.612;2022-12-08T05:46:34;18.50;;;9.57;;
75696;SDS011;64312;44.738;20.612;2022-12-08T05:49:00;16.38;;;9.40;;
75696;SDS011;64312;44.738;20.612;2022-12-08T05:51:27;19.48;;;10.50;;
75696;SDS011;64312;44.738;20.612;2022-12-08T05:53:53;18.65;;;9.73;;
75696;SDS011;64312;44.738;20.612;2022-12-08T05:56:20;19.95;;;10.05;;
75696;SDS011;64312;44.738;20.612;2022-12-08T05:58:46;20.88;;;10.95;;
75696;SDS011;64312;44.738;20.612;2022-12-08T06:03:45;22.67;;;11.98;;
75696;SDS011;64312;44.738;20.612;2022-12-08T06:06:11;19.80;;;11.20;;
75696;SDS011;64312;44.738;20.612;2022-12-08T06:08:37;22.92;;;11.23;;
75696;SDS011;64312;44.738;20.612;2022-12-08T06:11:02;25.42;;;11.55;;
75696;SDS011;64312;44.738;20.612;2022-12-08T06:13:28;20.13;;;11.25;;
75696;SDS011;64312;44.738;20.612;2022-12-08T06:15:53;21.88;;;11.65;;
75696;SDS011;64312;44.738;20.612;2022-12-08T06:18:19;20.33;;;11.68;;
75696;SDS011;64312;44.738;20.612;2022-12-08T06:20:45;23.60;;;12.43;;
75696;SDS011;64312;44.738;20.612;2022-12-08T06:23:10;24.33;;;13.00;;
75696;SDS011;64312;44.738;20.612;2022-12-08T06:25:36;32.50;;;15.60;;
75696;SDS011;64312;44.738;20.612;2022-12-08T06:28:03;28.63;;;15.68;;
75696;SDS011;64312;44.738;20.612;2022-12-08T06:30:30;41.17;;;19.40;;
75696;SDS011;64312;44.738;20.612;2022-12-08T06:32:56;42.63;;;19.52;;
75696;SDS011;64312;44.738;20.612;2022-12-08T06:35:21;35.50;;;16.38;;
75696;SDS011;64312;44.738;20.612;2022-12-08T06:37:47;37.38;;;16.83;;
75696;SDS011;64312;44.738;20.612;2022-12-08T06:40:13;35.53;;;16.67;;
75696;SDS011;64312;44.738;20.612;2022-12-08T06:42:39;35.95;;;15.80;;
75696;SDS011;64312;44.738;20.612;2022-12-08T06:45:12;32.45;;;13.88;;
75696;SDS011;64312;44.738;20.612;2022-12-08T06:47:39;27.85;;;14.52;;
75696;SDS011;64312;44.738;20.612;2022-12-08T06:50:05;25.15;;;14.35;;
75696;SDS011;64312;44.738;20.612;2022-12-08T06:52:32;28.55;;;14.48;;
75696;SDS011;64312;44.738;20.612;2022-12-08T06:54:57;30.10;;;14.63;;
75696;SDS011;64312;44.738;20.612;2022-12-08T06:57:23;26.67;;;14.25;;
75696;SDS011;64312;44.738;20.612;2022-12-08T06:59:49;34.35;;;18.00;;
75696;SDS011;64312;44.738;20.612;2022-12-08T07:02:15;37.85;;;19.38;;
75696;SDS011;64312;44.738;20.612;2022-12-08T07:04:41;33.03;;;17.67;;
75696;SDS011;64312;44.738;20.612;2022-12-08T07:07:07;28.05;;;16.05;;
75696;SDS011;64312;44.738;20.612;2022-12-08T07:09:33;29.23;;;14.93;;
75696;SDS011;64312;44.738;20.612;2022-12-08T07:11:58;34.05;;;17.08;;
75696;SDS011;64312;44.738;20.612;2022-12-08T07:14:24;32.00;;;18.77;;
75696;SDS011;64312;44.738;20.612;2022-12-08T07:16:50;30.90;;;16.33;;
75696;SDS011;64312;44.738;20.612;2022-12-08T07:19:16;28.02;;;15.32;;
75696;SDS011;64312;44.738;20.612;2022-12-08T07:21:43;36.08;;;18.33;;
75696;SDS011;64312;44.738;20.612;2022-12-08T07:24:08;37.63;;;18.05;;
75696;SDS011;64312;44.738;20.612;2022-12-08T07:26:34;33.08;;;17.50;;
75696;SDS011;64312;44.738;20.612;2022-12-08T07:29:00;32.28;;;16.63;;
75696;SDS011;64312;44.738;20.612;2022-12-08T07:31:26;30.75;;;16.00;;
75696;SDS011;64312;44.738;20.612;2022-12-08T07:33:52;27.65;;;15.55;;
75696;SDS011;64312;44.738;20.612;2022-12-08T07:36:19;23.50;;;12.93;;
75696;SDS011;64312;44.738;20.612;2022-12-08T07:38:45;21.58;;;12.90;;
75696;SDS011;64312;44.738;20.612;2022-12-08T07:41:16;28.30;;;15.27;;
75696;SDS011;64312;44.738;20.612;2022-12-08T07:43:45;31.20;;;15.82;;
75696;SDS011;64312;44.738;20.612;2022-12-08T07:46:11;31.98;;;16.77;;
75696;SDS011;64312;44.738;20.612;2022-12-08T07:48:41;46.42;;;23.25;;
75696;SDS011;64312;44.738;20.612;2022-12-08T07:51:07;44.15;;;22.88;;
75696;SDS011;64312;44.738;20.612;2022-12-08T07:53:34;42.65;;;20.95;;
75696;SDS011;64312;44.738;20.612;2022-12-08T07:56:00;33.33;;;18.30;;
75696;SDS011;64312;44.738;20.612;2022-12-08T07:58:30;31.75;;;17.10;;
75696;SDS011;64312;44.738;20.612;2022-12-08T08:00:56;34.33;;;18.55;;
75696;SDS011;64312;44.738;20.612;2022-12-08T08:03:22;33.08;;;16.88;;
75696;SDS011;64312;44.738;20.612;2022-12-08T08:05:47;30.52;;;14.77;;
75696;SDS011;64312;44.738;20.612;2022-12-08T08:08:15;28.08;;;16.08;;
75696;SDS011;64312;44.738;20.612;2022-12-08T08:10:41;28.25;;;14.23;;
75696;SDS011;64312;44.738;20.612;2022-12-08T08:13:07;30.52;;;14.93;;
75696;SDS011;64312;44.738;20.612;2022-12-08T08:15:33;42.92;;;19.58;;
75696;SDS011;64312;44.738;20.612;2022-12-08T08:17:59;35.90;;;18.27;;
75696;SDS011;64312;44.738;20.612;2022-12-08T08:20:25;28.98;;;14.85;;
75696;SDS011;64312;44.738;20.612;2022-12-08T08:22:51;34.08;;;15.13;;
75696;SDS011;64312;44.738;20.612;2022-12-08T08:25:17;29.20;;;14.85;;
75696;SDS011;64312;44.738;20.612;2022-12-08T08:27:44;23.02;;;14.57;;
75696;SDS011;64312;44.738;20.612;2022-12-08T08:30:11;23.98;;;11.88;;
75696;SDS011;64312;44.738;20.612;2022-12-08T08:32:38;21.98;;;11.13;;
75696;SDS011;64312;44.738;20.612;2022-12-08T08:35:04;18.25;;;10.57;;
75696;SDS011;64312;44.738;20.612;2022-12-08T08:37:30;20.67;;;11.45;;
75696;SDS011;64312;44.738;20.612;2022-12-08T08:39:56;22.08;;;11.65;;
75696;SDS011;64312;44.738;20.612;2022-12-08T08:42:22;21.48;;;10.90;;
75696;SDS011;64312;44.738;20.612;2022-12-08T08:44:47;23.13;;;12.55;;
75696;SDS011;64312;44.738;20.612;2022-12-08T08:47:13;21.17;;;13.10;;
75696;SDS011;64312;44.738;20.612;2022-12-08T08:49:39;19.13;;;11.82;;
75696;SDS011;64312;44.738;20.612;2022-12-08T08:52:06;17.00;;;10.52;;
75696;SDS011;64312;44.738;20.612;2022-12-08T08:54:32;19.17;;;10.18;;
75696;SDS011;64312;44.738;20.612;2022-12-08T08:56:59;13.57;;;8.60;;
75696;SDS011;64312;44.738;20.612;2022-12-08T08:59:25;13.65;;;8.55;;
75696;SDS011;64312;44.738;20.612;2022-12-08T09:01:52;13.43;;;8.18;;
75696;SDS011;64312;44.738;20.612;2022-12-08T09:04:19;12.75;;;7.88;;
75696;SDS011;64312;44.738;20.612;2022-12-08T09:06:46;12.82;;;7.18;;
75696;SDS011;64312;44.738;20.612;2022-12-08T09:09:12;15.40;;;8.18;;
75696;SDS011;64312;44.738;20.612;2022-12-08T09:11:39;16.13;;;9.23;;
75696;SDS011;64312;44.738;20.612;2022-12-08T09:14:04;14.85;;;9.45;;
75696;SDS011;64312;44.738;20.612;2022-12-08T09:16:31;19.00;;;8.88;;
75696;SDS011;64312;44.738;20.612;2022-12-08T09:18:57;19.02;;;9.82;;
75696;SDS011;64312;44.738;20.612;2022-12-08T09:21:23;16.27;;;8.73;;
75696;SDS011;64312;44.738;20.612;2022-12-08T09:23:51;17.77;;;10.10;;
75696;SDS011;64312;44.738;20.612;2022-12-08T09:26:18;21.65;;;10.18;;
75696;SDS011;64312;44.738;20.612;2022-12-08T09:28:47;21.05;;;10.63;;
75696;SDS011;64312;44.738;20.612;2022-12-08T09:31:14;20.00;;;10.63;;
75696;SDS011;64312;44.738;20.612;2022-12-08T09:33:41;19.73;;;9.32;;
75696;SDS011;64312;44.738;20.612;2022-12-08T09:36:09;20.08;;;10.98;;
75696;SDS011;64312;44.738;20.612;2022-12-08T09:38:36;21.80;;;10.30;;
75696;SDS011;64312;44.738;20.612;2022-12-08T09:41:03;18.95;;;10.30;;
75696;SDS011;64312;44.738;20.612;2022-12-08T09:46:27;29.13;;;12.80;;
75696;SDS011;64312;44.738;20.612;2022-12-08T09:48:57;25.98;;;13.90;;
75696;SDS011;64312;44.738;20.612;2022-12-08T09:51:24;27.77;;;12.77;;
75696;SDS011;64312;44.738;20.612;2022-12-08T09:56:32;21.60;;;11.55;;
75696;SDS011;64312;44.738;20.612;2022-12-08T10:01:51;32.35;;;15.38;;
75696;SDS011;64312;44.738;20.612;2022-12-08T10:04:21;29.98;;;15.13;;
75696;SDS011;64312;44.738;20.612;2022-12-08T10:06:56;26.05;;;13.50;;
75696;SDS011;64312;44.738;20.612;2022-12-08T10:09:48;30.23;;;14.60;;
75696;SDS011;64312;44.738;20.612;2022-12-08T10:18:22;28.17;;;13.05;;
75696;SDS011;64312;44.738;20.612;2022-12-08T10:20:51;24.98;;;11.90;;
75696;SDS011;64312;44.738;20.612;2022-12-08T10:23:23;26.40;;;12.07;;
75696;SDS011;64312;44.738;20.612;2022-12-08T10:26:04;20.10;;;10.68;;
75696;SDS011;64312;44.738;20.612;2022-12-08T10:28:33;21.48;;;10.25;;
75696;SDS011;64312;44.738;20.612;2022-12-08T10:30:59;19.45;;;10.05;;
75696;SDS011;64312;44.738;20.612;2022-12-08T10:33:25;17.95;;;8.35;;
75696;SDS011;64312;44.738;20.612;2022-12-08T10:35:54;19.80;;;10.10;;
75696;SDS011;64312;44.738;20.612;2022-12-08T10:38:30;26.73;;;13.10;;
75696;SDS011;64312;44.738;20.612;2022-12-08T10:41:11;27.33;;;12.52;;
75696;SDS011;64312;44.738;20.612;2022-12-08T10:43:46;27.08;;;13.93;;
75696;SDS011;64312;44.738;20.612;2022-12-08T10:46:20;32.83;;;14.48;;
75696;SDS011;64312;44.738;20.612;2022-12-08T10:49:11;29.63;;;12.20;;
75696;SDS011;64312;44.738;20.612;2022-12-08T10:51:38;23.02;;;12.27;;
75696;SDS011;64312;44.738;20.612;2022-12-08T10:56:54;27.05;;;12.07;;
75696;SDS011;64312;44.738;20.612;2022-12-08T10:59:20;27.05;;;12.45;;
75696;SDS011;64312;44.738;20.612;2022-12-08T11:01:47;27.33;;;13.73;;
75696;SDS011;64312;44.738;20.612;2022-12-08T11:04:16;37.17;;;16.25;;
75696;SDS011;64312;44.738;20.612;2022-12-08T11:11:59;32.75;;;13.07;;
75696;SDS011;64312;44.738;20.612;2022-12-08T11:15:17;30.65;;;14.65;;
75696;SDS011;64312;44.738;20.612;2022-12-08T11:17:26;27.42;;;14.18;;
75696;SDS011;64312;44.738;20.612;2022-12-08T11:19:57;31.02;;;13.43;;
75696;SDS011;64312;44.738;20.612;2022-12-08T11:25:27;24.83;;;11.23;;
75696;SDS011;64312;44.738;20.612;2022-12-08T11:27:53;22.23;;;11.70;;
75696;SDS011;64312;44.738;20.612;2022-12-08T11:30:23;24.10;;;11.35;;
75696;SDS011;64312;44.738;20.612;2022-12-08T11:32:56;23.35;;;11.32;;
75696;SDS011;64312;44.738;20.612;2022-12-08T11:35:27;19.63;;;10.57;;
75696;SDS011;64312;44.738;20.612;2022-12-08T11:38:00;24.65;;;11.20;;
75696;SDS011;64312;44.738;20.612;2022-12-08T11:40:34;22.23;;;12.43;;
75696;SDS011;64312;44.738;20.612;2022-12-08T11:45:42;23.15;;;11.90;;
75696;SDS011;64312;44.738;20.612;2022-12-08T11:48:18;23.55;;;13.02;;
75696;SDS011;64312;44.738;20.612;2022-12-08T11:51:02;20.65;;;11.60;;
75696;SDS011;64312;44.738;20.612;2022-12-08T11:56:36;21.52;;;10.90;;
75696;SDS011;64312;44.738;20.612;2022-12-08T12:01:50;23.48;;;12.38;;
75696;SDS011;64312;44.738;20.612;2022-12-08T12:04:34;23.85;;;11.88;;
75696;SDS011;64312;44.738;20.612;2022-12-08T12:18:03;19.45;;;11.23;;
75696;SDS011;64312;44.738;20.612;2022-12-08T12:20:36;19.50;;;11.68;;
75696;SDS011;64312;44.738;20.612;2022-12-08T12:26:04;18.45;;;10.07;;
75696;SDS011;64312;44.738;20.612;2022-12-08T12:28:52;17.90;;;10.00;;
75696;SDS011;64312;44.738;20.612;2022-12-08T12:31:26;19.35;;;9.68;;
75696;SDS011;64312;44.738;20.612;2022-12-08T12:34:05;18.67;;;9.73;;
75696;SDS011;64312;44.738;20.612;2022-12-08T12:39:27;15.52;;;9.38;;
75696;SDS011;64312;44.738;20.612;2022-12-08T12:41:56;16.70;;;8.23;;
75696;SDS011;64312;44.738;20.612;2022-12-08T12:46:54;17.55;;;8.90;;
75696;SDS011;64312;44.738;20.612;2022-12-08T13:02:27;18.13;;;9.55;;
75696;SDS011;64312;44.738;20.612;2022-12-08T13:04:56;19.20;;;10.80;;
75696;SDS011;64312;44.738;20.612;2022-12-08T13:10:36;15.30;;;8.30;;
75696;SDS011;64312;44.738;20.612;2022-12-08T13:13:15;16.48;;;8.88;;
75696;SDS011;64312;44.738;20.612;2022-12-08T13:18:24;16.08;;;8.32;;
75696;SDS011;64312;44.738;20.612;2022-12-08T13:21:04;13.27;;;7.85;;
75696;SDS011;64312;44.738;20.612;2022-12-08T13:23:44;14.73;;;7.65;;
75696;SDS011;64312;44.738;20.612;2022-12-08T13:26:29;11.48;;;6.90;;
75696;SDS011;64312;44.738;20.612;2022-12-08T13:34:16;13.43;;;8.20;;
75696;SDS011;64312;44.738;20.612;2022-12-08T13:47:31;16.08;;;8.55;;
75696;SDS011;64312;44.738;20.612;2022-12-08T13:52:43;21.38;;;12.27;;
75696;SDS011;64312;44.738;20.612;2022-12-08T13:55:14;19.33;;;10.32;;
75696;SDS011;64312;44.738;20.612;2022-12-08T13:57:45;16.23;;;9.63;;
75696;SDS011;64312;44.738;20.612;2022-12-08T14:00:14;15.40;;;8.50;;
75696;SDS011;64312;44.738;20.612;2022-12-08T14:02:42;18.50;;;10.98;;
75696;SDS011;64312;44.738;20.612;2022-12-08T14:05:10;18.85;;;10.90;;
75696;SDS011;64312;44.738;20.612;2022-12-08T14:07:37;21.50;;;13.43;;
75696;SDS011;64312;44.738;20.612;2022-12-08T14:10:47;23.67;;;13.15;;
75696;SDS011;64312;44.738;20.612;2022-12-08T14:13:05;17.52;;;11.82;;
75696;SDS011;64312;44.738;20.612;2022-12-08T14:15:37;18.77;;;11.10;;
75696;SDS011;64312;44.738;20.612;2022-12-08T14:18:04;17.48;;;9.77;;
75696;SDS011;64312;44.738;20.612;2022-12-08T14:20:32;19.40;;;11.63;;
75696;SDS011;64312;44.738;20.612;2022-12-08T14:22:58;18.45;;;10.25;;
75696;SDS011;64312;44.738;20.612;2022-12-08T14:25:27;18.85;;;9.90;;
75696;SDS011;64312;44.738;20.612;2022-12-08T14:27:57;18.63;;;10.77;;
75696;SDS011;64312;44.738;20.612;2022-12-08T14:30:34;19.75;;;11.27;;
75696;SDS011;64312;44.738;20.612;2022-12-08T14:33:03;23.05;;;11.88;;
75696;SDS011;64312;44.738;20.612;2022-12-08T14:35:36;23.73;;;13.27;;
75696;SDS011;64312;44.738;20.612;2022-12-08T14:38:04;22.40;;;12.82;;
75696;SDS011;64312;44.738;20.612;2022-12-08T14:40:42;21.15;;;11.70;;
75696;SDS011;64312;44.738;20.612;2022-12-08T14:45:45;27.10;;;15.00;;
75696;SDS011;64312;44.738;20.612;2022-12-08T14:53:29;56.08;;;30.65;;
75696;SDS011;64312;44.738;20.612;2022-12-08T14:56:06;56.75;;;29.20;;
75696;SDS011;64312;44.738;20.612;2022-12-08T14:58:44;52.95;;;30.40;;
75696;SDS011;64312;44.738;20.612;2022-12-08T15:01:13;50.08;;;27.15;;
75696;SDS011;64312;44.738;20.612;2022-12-08T15:03:41;43.58;;;22.58;;
75696;SDS011;64312;44.738;20.612;2022-12-08T15:06:08;46.75;;;23.20;;
75696;SDS011;64312;44.738;20.612;2022-12-08T15:08:48;49.40;;;27.50;;
75696;SDS011;64312;44.738;20.612;2022-12-08T15:13:46;52.13;;;29.30;;
75696;SDS011;64312;44.738;20.612;2022-12-08T15:16:22;53.63;;;29.88;;
75696;SDS011;64312;44.738;20.612;2022-12-08T15:18:54;48.92;;;25.70;;
75696;SDS011;64312;44.738;20.612;2022-12-08T15:21:29;54.78;;;30.40;;
75696;SDS011;64312;44.738;20.612;2022-12-08T15:24:01;52.38;;;27.63;;
75696;SDS011;64312;44.738;20.612;2022-12-08T15:26:27;50.97;;;28.42;;
75696;SDS011;64312;44.738;20.612;2022-12-08T15:28:54;43.40;;;22.88;;
75696;SDS011;64312;44.738;20.612;2022-12-08T15:31:20;40.08;;;22.70;;
75696;SDS011;64312;44.738;20.612;2022-12-08T15:33:46;39.97;;;22.13;;
75696;SDS011;64312;44.738;20.612;2022-12-08T15:36:12;38.55;;;21.77;;
75696;SDS011;64312;44.738;20.612;2022-12-08T15:38:38;35.40;;;20.35;;
75696;SDS011;64312;44.738;20.612;2022-12-08T15:41:03;33.53;;;18.92;;
75696;SDS011;64312;44.738;20.612;2022-12-08T15:43:30;33.72;;;18.83;;
75696;SDS011;64312;44.738;20.612;2022-12-08T15:45:56;28.77;;;15.65;;
75696;SDS011;64312;44.738;20.612;2022-12-08T15:48:23;29.50;;;15.63;;
75696;SDS011;64312;44.738;20.612;2022-12-08T15:50:51;25.92;;;16.17;;
75696;SDS011;64312;44.738;20.612;2022-12-08T15:53:17;25.00;;;15.23;;
75696;SDS011;64312;44.738;20.612;2022-12-08T15:55:43;22.27;;;14.32;;
75696;SDS011;64312;44.738;20.612;2022-12-08T15:58:14;20.75;;;13.30;;
75696;SDS011;64312;44.738;20.612;2022-12-08T16:00:44;21.48;;;11.23;;
75696;SDS011;64312;44.738;20.612;2022-12-08T16:03:26;22.67;;;13.32;;
75696;SDS011;64312;44.738;20.612;2022-12-08T16:05:54;21.88;;;12.15;;
75696;SDS011;64312;44.738;20.612;2022-12-08T16:08:21;22.50;;;13.43;;
75696;SDS011;64312;44.738;20.612;2022-12-08T16:10:47;20.65;;;12.23;;
75696;SDS011;64312;44.738;20.612;2022-12-08T16:13:17;18.77;;;11.20;;
75696;SDS011;64312;44.738;20.612;2022-12-08T16:16:03;16.52;;;10.10;;
75696;SDS011;64312;44.738;20.612;2022-12-08T16:18:33;12.40;;;7.88;;
75696;SDS011;64312;44.738;20.612;2022-12-08T16:21:01;15.35;;;8.80;;
75696;SDS011;64312;44.738;20.612;2022-12-08T16:23:27;13.88;;;7.70;;
75696;SDS011;64312;44.738;20.612;2022-12-08T16:25:53;13.02;;;6.88;;
75696;SDS011;64312;44.738;20.612;2022-12-08T16:28:19;14.00;;;8.40;;
75696;SDS011;64312;44.738;20.612;2022-12-08T16:30:45;10.18;;;6.95;;
75696;SDS011;64312;44.738;20.612;2022-12-08T16:33:10;11.30;;;7.68;;
75696;SDS011;64312;44.738;20.612;2022-12-08T16:35:37;12.05;;;7.75;;
75696;SDS011;64312;44.738;20.612;2022-12-08T16:38:03;10.52;;;6.60;;
75696;SDS011;64312;44.738;20.612;2022-12-08T16:40:29;8.88;;;6.05;;